createdAt,value
2019-05-22T00:01:41.998Z,1.50
2019-05-22T00:04:33.651Z,1.52
2019-05-22T00:07:11.198Z,1.60
2019-05-22T00:09:49.016Z,1.65
2019-05-22T00:12:25.372Z,1.27
2019-05-22T00:14:57.618Z,1.45
2019-05-22T00:17:37.448Z,1.50
2019-05-22T00:20:12.170Z,1.50
2019-05-22T00:22:47.346Z,1.50
2019-05-22T00:25:28.975Z,1.40
2019-05-22T00:28:06.206Z,1.50
2019-05-22T00:30:42.168Z,1.40
2019-05-22T00:33:18.492Z,1.40
2019-05-22T00:35:53.891Z,1.40
2019-05-22T00:38:26.775Z,2.00
2019-05-22T00:41:05.763Z,1.40
2019-05-22T00:43:43.791Z,1.70
2019-05-22T00:46:20.624Z,1.50
2019-05-22T00:48:55.001Z,1.22
2019-05-22T00:51:46.111Z,1.40
2019-05-22T00:54:34.860Z,1.32
2019-05-22T00:57:36.892Z,1.50
2019-05-22T01:00:34.817Z,1.20
2019-05-22T01:03:10.155Z,1.30
2019-05-22T01:05:43.491Z,1.30
2019-05-22T01:10:53.318Z,1.50
2019-05-22T01:13:32.585Z,1.30
2019-05-22T01:16:07.500Z,1.42
2019-05-22T01:18:42.542Z,1.75
2019-05-22T01:21:24.601Z,1.40
2019-05-22T01:24:01.781Z,1.50
2019-05-22T01:26:35.901Z,1.62
2019-05-22T01:29:09.285Z,1.80
2019-05-22T01:31:51.550Z,1.70
2019-05-22T01:34:30.549Z,2.00
2019-05-22T01:37:10.131Z,2.00
2019-05-22T01:40:18.578Z,1.85
2019-05-22T01:42:53.727Z,2.17
2019-05-22T01:45:26.653Z,2.35
2019-05-22T01:48:08.610Z,2.15
2019-05-22T01:50:58.770Z,2.40
2019-05-22T01:53:38.625Z,2.87
2019-05-22T01:56:12.802Z,2.40
2019-05-22T01:58:45.650Z,2.62
2019-05-22T02:01:24.187Z,3.12
2019-05-22T02:03:58.792Z,2.65
2019-05-22T02:06:37.060Z,3.58
2019-05-22T02:09:30.908Z,3.47
2019-05-22T02:12:13.599Z,3.92
2019-05-22T02:14:48.337Z,3.63
2019-05-22T02:17:25.700Z,3.90
2019-05-22T02:19:58.123Z,2.90
2019-05-22T02:22:32.191Z,4.23
2019-05-22T02:25:05.298Z,3.98
2019-05-22T02:27:39.356Z,4.00
2019-05-22T02:30:16.376Z,3.65
2019-05-22T02:32:49.565Z,4.03
2019-05-22T02:35:21.770Z,3.90
2019-05-22T02:37:54.885Z,3.95
2019-05-22T02:43:00.147Z,5.08
2019-05-22T02:45:33.276Z,5.35
2019-05-22T02:48:09.841Z,5.00
2019-05-22T02:50:42.350Z,5.90
2019-05-22T02:53:15.048Z,6.28
2019-05-22T02:55:48.778Z,6.55
2019-05-22T02:58:27.664Z,7.92
2019-05-22T03:01:02.707Z,8.35
2019-05-22T03:03:37.218Z,9.75
2019-05-22T03:06:13.408Z,10.95
2019-05-22T03:09:19.722Z,9.18
2019-05-22T03:11:57.877Z,11.28
2019-05-22T03:14:30.829Z,11.38
2019-05-22T03:17:07.740Z,12.68
2019-05-22T03:19:45.448Z,11.30
2019-05-22T03:22:31.960Z,12.68
2019-05-22T03:25:09.201Z,12.13
2019-05-22T03:27:45.939Z,10.40
2019-05-22T03:30:22.304Z,11.20
2019-05-22T03:32:55.505Z,11.30
2019-05-22T03:38:01.479Z,9.83
2019-05-22T03:40:37.292Z,10.32
2019-05-22T03:43:20.317Z,12.07
2019-05-22T03:45:54.608Z,12.15
2019-05-22T03:51:12.879Z,11.15
2019-05-22T03:53:46.413Z,12.45
2019-05-22T03:56:20.059Z,11.30
2019-05-22T03:58:53.721Z,9.68
2019-05-22T04:01:26.360Z,11.00
2019-05-22T04:03:59.759Z,10.53
2019-05-22T04:06:33.164Z,10.18
2019-05-22T04:09:13.963Z,10.82
2019-05-22T04:11:48.569Z,11.63
2019-05-22T04:14:25.301Z,10.93
2019-05-22T04:17:03.967Z,12.73
2019-05-22T04:19:48.796Z,12.65
2019-05-22T04:22:10.314Z,12.25
2019-05-22T04:24:42.274Z,13.78
2019-05-22T04:27:14.251Z,11.88
2019-05-22T04:29:47.579Z,13.00
2019-05-22T04:35:12.913Z,13.20
2019-05-22T04:37:46.950Z,14.47
2019-05-22T04:40:58.131Z,14.58
2019-05-22T04:43:36.714Z,14.98
2019-05-22T04:46:09.718Z,15.32
2019-05-22T04:48:46.145Z,15.23
2019-05-22T04:51:42.388Z,15.30
2019-05-22T04:54:14.114Z,14.70
2019-05-22T04:56:46.732Z,15.58
2019-05-22T04:59:18.778Z,15.23
2019-05-22T05:01:51.022Z,13.60
2019-05-22T05:04:25.775Z,15.08
2019-05-22T05:06:57.921Z,13.58
2019-05-22T05:09:29.906Z,13.03
2019-05-22T05:12:05.660Z,14.00
2019-05-22T05:14:39.787Z,13.20
2019-05-22T05:17:13.325Z,12.70
2019-05-22T05:19:46.576Z,12.82
2019-05-22T05:22:41.472Z,12.23
2019-05-22T05:25:13.508Z,13.13
2019-05-22T05:27:46.565Z,11.43
2019-05-22T05:30:21.253Z,11.05
2019-05-22T05:32:53.483Z,10.45
2019-05-22T05:35:29.162Z,11.03
2019-05-22T05:38:02.672Z,10.50
2019-05-22T05:40:45.355Z,9.40
2019-05-22T05:43:19.266Z,9.80
2019-05-22T05:45:52.629Z,10.75
2019-05-22T05:48:31.313Z,11.70
2019-05-22T05:51:42.563Z,12.75
2019-05-22T05:54:15.691Z,13.55
2019-05-22T05:56:50.792Z,14.83
2019-05-22T05:59:24.389Z,16.17
2019-05-22T06:02:02.059Z,15.45
2019-05-22T06:04:39.520Z,15.50
2019-05-22T06:07:28.180Z,15.48
2019-05-22T06:10:42.491Z,18.23
2019-05-22T06:16:38.941Z,19.02
2019-05-22T06:19:11.101Z,18.52
2019-05-22T06:21:50.246Z,20.88
2019-05-22T06:24:32.827Z,20.88
2019-05-22T06:27:20.042Z,19.80
2019-05-22T06:29:59.815Z,19.05
2019-05-22T06:33:10.485Z,19.57
2019-05-22T06:35:42.508Z,21.10
2019-05-22T06:38:54.463Z,19.30
2019-05-22T06:41:31.687Z,20.30
2019-05-22T06:44:39.273Z,19.65
2019-05-22T06:47:18.357Z,20.32
2019-05-22T06:49:58.681Z,19.82
2019-05-22T06:52:34.290Z,19.80
2019-05-22T06:55:06.720Z,18.20
2019-05-22T06:58:01.746Z,19.23
2019-05-22T07:00:27.616Z,19.17
2019-05-22T07:03:08.501Z,19.15
2019-05-22T07:05:43.062Z,18.95
2019-05-22T07:08:17.684Z,18.50
2019-05-22T07:10:50.131Z,18.70
2019-05-22T07:13:25.648Z,17.20
2019-05-22T07:16:00.658Z,18.02
2019-05-22T07:18:32.828Z,17.52
2019-05-22T07:21:16.481Z,17.42
2019-05-22T07:23:58.538Z,18.40
2019-05-22T07:26:34.154Z,17.62
2019-05-22T07:29:15.420Z,17.10
2019-05-22T07:31:50.445Z,17.85
2019-05-22T07:34:22.724Z,16.30
2019-05-22T07:36:57.793Z,17.50
2019-05-22T07:39:36.294Z,17.98
2019-05-22T07:42:10.401Z,15.50
2019-05-22T07:44:48.578Z,17.65
2019-05-22T07:47:23.975Z,16.35
2019-05-22T07:49:58.867Z,16.85
2019-05-22T07:52:31.739Z,14.53
2019-05-22T07:55:04.725Z,14.68
2019-05-22T07:57:40.639Z,16.37
2019-05-22T08:00:16.496Z,16.87
2019-05-22T08:02:51.255Z,16.55
2019-05-22T08:05:26.845Z,15.88
2019-05-22T08:07:59.994Z,17.23
2019-05-22T08:13:07.681Z,16.23
2019-05-22T08:15:40.006Z,16.87
2019-05-22T08:18:19.489Z,16.07
2019-05-22T08:20:54.259Z,17.85
2019-05-22T08:23:30.014Z,16.50
2019-05-22T08:26:06.785Z,14.53
2019-05-22T08:28:40.760Z,15.00
2019-05-22T08:31:21.526Z,15.20
2019-05-22T08:33:56.906Z,14.35
2019-05-22T08:36:33.753Z,14.95
2019-05-22T08:39:16.645Z,15.72
2019-05-22T08:41:53.267Z,15.85
2019-05-22T08:44:30.446Z,15.40
2019-05-22T08:47:12.587Z,16.35
2019-05-22T08:49:44.339Z,16.05
2019-05-22T08:52:23.768Z,16.25
2019-05-22T08:55:07.902Z,16.25
2019-05-22T08:57:58.963Z,17.85
2019-05-22T09:00:47.237Z,17.05
2019-05-22T09:06:16.530Z,16.10
2019-05-22T09:08:51.842Z,15.65
2019-05-22T09:11:27.881Z,16.10
2019-05-22T09:14:16.785Z,14.83
2019-05-22T09:16:54.771Z,15.28
2019-05-22T09:19:33.087Z,15.50
2019-05-22T09:22:20.282Z,14.95
2019-05-22T09:25:24.704Z,14.43
2019-05-22T09:31:54.876Z,13.90
2019-05-22T09:34:32.662Z,14.47
2019-05-22T09:38:24.075Z,12.75
2019-05-22T09:40:28.535Z,13.55
2019-05-22T09:43:02.754Z,13.03
2019-05-22T09:45:39.738Z,12.78
2019-05-22T09:48:16.279Z,13.80
2019-05-22T09:50:51.454Z,13.18
2019-05-22T09:53:44.816Z,13.75
2019-05-22T09:56:18.590Z,13.53
2019-05-22T09:58:51.593Z,12.80
2019-05-22T10:01:25.370Z,14.40
2019-05-22T10:04:00.934Z,13.45
2019-05-22T10:06:32.950Z,14.63
2019-05-22T10:09:12.023Z,17.37
2019-05-22T10:11:46.916Z,16.90
2019-05-22T10:14:22.097Z,18.07
2019-05-22T10:16:54.465Z,18.40
2019-05-22T10:19:45.159Z,18.48
2019-05-22T10:22:17.604Z,16.93
2019-05-22T10:25:13.830Z,18.70
2019-05-22T10:27:32.230Z,19.60
2019-05-22T10:30:14.259Z,17.65
2019-05-22T10:33:01.947Z,18.48
2019-05-22T10:35:36.458Z,16.97
2019-05-22T10:38:09.870Z,17.90
2019-05-22T10:40:49.117Z,17.60
2019-05-22T10:43:19.575Z,17.77
2019-05-22T10:45:53.495Z,17.27
2019-05-22T10:48:26.701Z,18.48
2019-05-22T10:51:09.464Z,18.17
2019-05-22T10:53:57.932Z,17.05
2019-05-22T10:56:32.141Z,17.23
2019-05-22T10:59:11.970Z,17.95
2019-05-22T11:01:43.804Z,16.25
2019-05-22T11:04:19.829Z,17.95
2019-05-22T11:06:56.295Z,16.85
2019-05-22T11:09:50.595Z,18.80
2019-05-22T11:12:26.116Z,16.25
2019-05-22T11:15:04.529Z,17.32
2019-05-22T11:17:57.141Z,17.50
2019-05-22T11:20:34.361Z,17.52
2019-05-22T11:23:09.392Z,18.17
2019-05-22T11:25:42.099Z,16.82
2019-05-22T11:28:15.555Z,16.75
2019-05-22T11:30:48.775Z,17.98
2019-05-22T11:33:33.886Z,19.32
2019-05-22T11:36:09.914Z,18.85
2019-05-22T11:38:41.786Z,19.80
2019-05-22T11:41:41.258Z,18.85
2019-05-22T11:44:14.427Z,21.10
2019-05-22T11:46:57.815Z,22.27
2019-05-22T11:49:33.441Z,21.17
2019-05-22T11:52:07.596Z,20.32
2019-05-22T11:54:41.169Z,22.13
2019-05-22T11:57:14.811Z,19.73
2019-05-22T11:59:51.540Z,20.37
2019-05-22T12:02:30.721Z,21.10
2019-05-22T12:05:02.951Z,20.75
2019-05-22T12:07:35.417Z,17.87
2019-05-22T12:10:09.101Z,20.17
2019-05-22T12:12:41.492Z,18.23
2019-05-22T12:15:16.111Z,19.48
2019-05-22T12:17:49.862Z,20.35
2019-05-22T12:20:26.722Z,20.25
2019-05-22T12:23:00.066Z,19.15
2019-05-22T12:31:07.530Z,17.15
2019-05-22T12:33:41.934Z,17.15
2019-05-22T12:36:20.303Z,17.30
2019-05-22T12:39:10.670Z,18.15
2019-05-22T12:41:46.443Z,16.75
2019-05-22T12:44:38.093Z,17.25
2019-05-22T12:47:11.563Z,17.35
2019-05-22T12:49:43.958Z,16.87
2019-05-22T12:52:16.493Z,16.37
2019-05-22T12:54:52.437Z,16.97
2019-05-22T12:57:22.382Z,19.65
2019-05-22T12:59:55.385Z,16.50
2019-05-22T13:02:27.254Z,16.35
2019-05-22T13:05:00.322Z,16.42
2019-05-22T13:07:32.639Z,16.90
2019-05-22T13:10:05.905Z,15.73
2019-05-22T13:12:37.727Z,14.95
2019-05-22T13:15:11.185Z,15.78
2019-05-22T13:17:43.775Z,14.07
2019-05-22T13:20:19.453Z,14.00
2019-05-22T13:22:52.564Z,15.63
2019-05-22T13:25:29.747Z,15.28
2019-05-22T13:28:02.382Z,15.48
2019-05-22T13:30:36.811Z,15.00
2019-05-22T13:33:11.385Z,15.45
2019-05-22T13:35:43.471Z,15.10
2019-05-22T13:38:15.735Z,15.50
2019-05-22T13:40:48.263Z,16.23
2019-05-22T13:43:19.903Z,16.70
2019-05-22T13:45:52.116Z,15.93
2019-05-22T13:48:23.554Z,17.05
2019-05-22T13:50:58.032Z,16.87
2019-05-22T13:53:32.047Z,16.65
2019-05-22T13:56:05.096Z,18.15
2019-05-22T13:58:36.914Z,18.30
2019-05-22T14:01:12.853Z,16.57
2019-05-22T14:03:44.330Z,17.60
2019-05-22T14:06:16.085Z,18.40
2019-05-22T14:08:48.246Z,17.15
2019-05-22T14:11:20.584Z,16.45
2019-05-22T14:13:54.009Z,18.65
2019-05-22T14:16:26.832Z,19.52
2019-05-22T14:18:58.760Z,19.80
2019-05-22T14:21:30.062Z,19.48
2019-05-22T14:24:01.835Z,19.45
2019-05-22T14:26:33.590Z,18.95
2019-05-22T14:29:05.811Z,18.40
2019-05-22T14:31:37.435Z,18.80
2019-05-22T14:34:09.875Z,17.75
2019-05-22T14:36:42.011Z,18.73
2019-05-22T14:39:14.070Z,17.27
2019-05-22T14:41:45.424Z,18.15
2019-05-22T14:44:16.773Z,18.00
2019-05-22T14:46:48.720Z,18.65
2019-05-22T14:49:21.052Z,27.02
2019-05-22T14:51:53.694Z,18.37
2019-05-22T14:54:26.250Z,20.08
2019-05-22T14:56:57.640Z,16.80
2019-05-22T14:59:30.044Z,18.00
2019-05-22T15:02:02.945Z,16.57
2019-05-22T15:04:35.280Z,18.90
2019-05-22T15:07:07.725Z,17.45
2019-05-22T15:09:39.860Z,18.70
2019-05-22T15:12:11.196Z,17.23
2019-05-22T15:14:42.588Z,17.55
2019-05-22T15:17:31.152Z,17.95
2019-05-22T15:19:47.156Z,17.10
2019-05-22T15:22:19.051Z,17.35
2019-05-22T15:24:51.269Z,16.30
2019-05-22T15:27:22.905Z,17.27
2019-05-22T15:29:54.287Z,18.48
2019-05-22T15:32:26.083Z,17.37
2019-05-22T15:34:58.370Z,16.25
2019-05-22T15:37:31.248Z,16.75
2019-05-22T15:40:03.397Z,16.12
2019-05-22T15:42:38.822Z,16.32
2019-05-22T15:45:15.986Z,16.52
2019-05-22T15:47:55.329Z,16.87
2019-05-22T15:50:26.836Z,15.20
2019-05-22T15:53:05.156Z,13.83
2019-05-22T15:55:39.163Z,13.40
2019-05-22T15:58:12.057Z,12.55
2019-05-22T16:00:45.966Z,14.65
2019-05-22T16:03:21.052Z,14.38
2019-05-22T16:05:54.155Z,29.90
2019-05-22T16:08:26.071Z,33.88
2019-05-22T16:11:00.821Z,14.40
2019-05-22T16:13:34.848Z,16.65
2019-05-22T16:16:07.824Z,18.17
2019-05-22T16:18:42.473Z,15.72
2019-05-22T16:21:16.312Z,15.90
2019-05-22T16:23:48.092Z,15.63
2019-05-22T16:26:21.289Z,14.23
2019-05-22T16:28:53.341Z,13.70
2019-05-22T16:31:26.210Z,12.45
2019-05-22T16:33:58.140Z,12.33
2019-05-22T16:36:32.631Z,11.22
2019-05-22T16:39:06.536Z,10.35
2019-05-22T16:41:38.523Z,10.30
2019-05-22T16:44:10.859Z,10.70
2019-05-22T16:46:43.647Z,9.90
2019-05-22T16:49:19.810Z,10.35
2019-05-22T16:51:51.628Z,9.88
2019-05-22T16:54:25.190Z,9.45
2019-05-22T16:56:56.664Z,9.30
2019-05-22T16:59:29.233Z,8.40
2019-05-22T17:02:02.000Z,8.40
2019-05-22T17:04:33.556Z,8.25
2019-05-22T17:07:05.623Z,8.60
2019-05-22T17:09:41.314Z,8.38
2019-05-22T17:12:13.984Z,7.55
2019-05-22T17:14:46.911Z,7.37
2019-05-22T17:17:20.062Z,8.23
2019-05-22T17:19:51.991Z,7.55
2019-05-22T17:22:24.092Z,8.05
2019-05-22T17:24:55.675Z,8.25
2019-05-22T17:27:29.592Z,8.08
2019-05-22T17:30:01.583Z,8.45
2019-05-22T17:32:38.812Z,8.00
2019-05-22T17:35:11.224Z,8.20
2019-05-22T17:37:43.985Z,7.70
2019-05-22T17:40:18.585Z,7.37
2019-05-22T17:42:52.411Z,7.95
2019-05-22T17:45:26.896Z,7.37
2019-05-22T17:47:58.591Z,7.22
2019-05-22T17:50:31.515Z,7.70
2019-05-22T17:53:04.622Z,8.03
2019-05-22T17:55:40.375Z,6.72
2019-05-22T17:58:13.211Z,7.60
2019-05-22T18:00:47.120Z,7.55
2019-05-22T18:03:18.840Z,6.80
2019-05-22T18:05:50.255Z,6.20
2019-05-22T18:08:23.297Z,6.03
2019-05-22T18:10:55.017Z,6.67
2019-05-22T18:13:27.006Z,6.78
2019-05-22T18:15:59.394Z,5.87
2019-05-22T18:18:30.692Z,5.90
2019-05-22T18:21:02.162Z,5.72
2019-05-22T18:23:33.932Z,6.17
2019-05-22T18:26:05.645Z,6.80
2019-05-22T18:28:37.336Z,6.72
2019-05-22T18:31:09.226Z,5.97
2019-05-22T18:33:42.085Z,6.47
2019-05-22T18:36:13.740Z,7.08
2019-05-22T18:38:45.412Z,6.72
2019-05-22T18:41:17.550Z,6.45
2019-05-22T18:43:48.958Z,6.30
2019-05-22T18:46:20.715Z,6.10
2019-05-22T18:48:53.483Z,6.25
2019-05-22T18:51:25.406Z,5.85
2019-05-22T18:53:57.311Z,6.45
2019-05-22T20:38:27.674Z,9.15
2019-05-22T20:40:59.218Z,9.28
2019-05-22T20:43:32.034Z,9.03
2019-05-22T20:46:06.825Z,9.48
2019-05-22T20:48:38.847Z,9.18
2019-05-22T20:51:14.705Z,9.28
2019-05-22T20:53:54.319Z,8.88
2019-05-22T20:56:23.882Z,9.15
2019-05-22T20:58:55.503Z,9.10
2019-05-22T21:01:27.251Z,9.00
2019-05-22T21:04:04.025Z,8.63
2019-05-22T21:06:42.143Z,8.78
2019-05-22T21:09:14.641Z,9.38
2019-05-22T21:11:46.517Z,8.90
2019-05-22T21:14:19.495Z,9.53
2019-05-22T21:16:53.146Z,8.98
2019-05-22T21:19:25.029Z,9.23
2019-05-22T21:21:58.912Z,9.08
2019-05-22T21:24:30.967Z,26.82
2019-05-22T21:27:05.286Z,9.13
2019-05-22T21:29:38.485Z,9.35
2019-05-22T21:32:12.173Z,10.23
2019-05-22T21:34:45.118Z,9.00
2019-05-22T21:37:20.048Z,8.73
2019-05-22T21:39:59.178Z,9.75
2019-05-22T21:42:34.488Z,9.90
2019-05-22T21:45:07.511Z,9.50
2019-05-22T21:47:43.476Z,9.40
2019-05-22T21:50:17.437Z,9.65
2019-05-22T21:52:50.767Z,10.13
2019-05-22T21:58:09.988Z,10.43
2019-05-22T22:01:14.826Z,9.68
2019-05-22T22:03:51.499Z,8.95
2019-05-22T22:06:25.964Z,9.43
2019-05-22T22:09:00.395Z,10.55
2019-05-22T22:11:36.664Z,10.55
2019-05-22T22:14:11.723Z,11.15
2019-05-22T22:16:44.074Z,9.93
2019-05-22T22:19:19.451Z,10.58
2019-05-22T22:21:51.033Z,10.30
2019-05-22T22:24:23.327Z,10.98
2019-05-22T22:26:55.406Z,10.77
2019-05-22T22:29:28.031Z,10.18
2019-05-22T22:32:01.144Z,10.15
2019-05-22T22:34:47.466Z,10.00
2019-05-22T22:37:19.772Z,9.88
2019-05-22T22:39:55.193Z,9.83
2019-05-22T22:42:29.570Z,10.05
2019-05-22T22:45:03.662Z,9.65
2019-05-22T22:47:40.915Z,9.75
2019-05-22T22:50:14.152Z,10.28
2019-05-22T22:52:47.026Z,9.35
2019-05-22T22:55:20.099Z,9.93
2019-05-22T22:57:52.274Z,10.08
2019-05-22T23:00:37.992Z,10.75
2019-05-22T23:03:11.878Z,10.55
2019-05-22T23:05:46.927Z,9.98
2019-05-22T23:08:23.008Z,10.05
2019-05-22T23:10:54.788Z,10.53
2019-05-22T23:13:27.872Z,10.35
2019-05-22T23:16:00.312Z,9.45
2019-05-22T23:19:06.759Z,11.77
2019-05-22T23:21:37.830Z,9.65
2019-05-22T23:24:08.451Z,8.90
2019-05-22T23:26:41.800Z,9.10
2019-05-22T23:29:14.367Z,9.78
2019-05-22T23:31:46.693Z,10.20
2019-05-22T23:34:18.889Z,11.08
2019-05-22T23:36:50.606Z,10.45
2019-05-22T23:39:23.638Z,11.20
2019-05-22T23:41:59.641Z,11.25
2019-05-22T23:44:34.202Z,11.38
2019-05-22T23:47:07.966Z,11.55
2019-05-22T23:49:41.444Z,10.43
2019-05-22T23:52:15.420Z,10.38
2019-05-22T23:54:49.494Z,10.82
2019-05-22T23:57:22.608Z,10.98
2019-05-22T23:59:58.754Z,10.70
